Terminal Aerodrome Forecast
Issued by NWS

Home | Current Version | Previous Version | Text Only | Print | Product List | Glossary On
Versions: 1 2 3 4 5 6 7 8 9 10 11 12 13 14 15 16 17 18
000
FTUS43 KGRR 030812 AAA
TAFAZO
TAF AMD
KAZO 030812Z 0308/0406 20003KT 6SM HZ VCTS SCT050CB
     FM031300 21005KT 5SM SHRA BR VCTS OVC040CB
     FM031500 24007KT P6SM VCTS BKN040CB=

USA.gov is the U.S. government's official web portal to all federal, state and local government web resources and services.